Time;durP1;ratioP1;P1;durP2;ratioP2;P2;SDS_P1;SDS_P2;PMS_P1;PMS_P2;Temp;Humidity;BMP_temperature;BMP_pressure;BME280_temperature;BME280_humidity;BME280_pressure;Samples;Min_cycle;Max_cycle;Signal;HPM_P1;HPM_P2
2022/03/07 00:00:32;;;;;;;;;;;;;;;;;;5010757;28;19927;-46
2022/03/07 00:02:57;;;;;;;;;;;;;;;;;;5011037;28;19983;-50
2022/03/07 00:05:22;;;;;;;;;;;;;;;;;;5011188;28;19967;-52
2022/03/07 00:07:47;;;;;;;;;;;;;;;;;;5013155;28;20342;-48
2022/03/07 00:10:13;;;;;;;;;;;;;;;;;;5012266;28;20432;-50
2022/03/07 00:12:38;;;;;;;;;;;;;;;;;;5008933;28;20380;-51
2022/03/07 00:15:03;;;;;;;;;;;;;;;;;;5008699;28;19920;-50
2022/03/07 00:17:28;;;;;;;;;;;;;;;;;;5013431;28;20343;-50
2022/03/07 00:19:53;;;;;;;;;;;;;;;;;;5012060;28;19932;-51
2022/03/07 00:22:18;;;;;;;;;;;;;;;;;;5016901;28;19924;-52
2022/03/07 00:24:44;;;;;;;;;;;;;;;;;;5012748;28;20281;-50
2022/03/07 00:27:09;;;;;;;;;;;;;;;;;;5012817;28;20024;-51
2022/03/07 00:29:34;;;;;;;;;;;;;;;;;;5011683;28;19932;-52
2022/03/07 00:31:59;;;;;;;;;;;;;;;;;;5008674;28;19928;-48
2022/03/07 00:34:24;;;;;;;;;;;;;;;;;;5010442;28;19921;-45
2022/03/07 00:36:49;;;;;;;;;;;;;;;;;;5009465;28;20373;-52
2022/03/07 00:39:14;;;;;;;;;;;;;;;;;;5014360;28;19945;-50
2022/03/07 00:41:40;;;;;;;;;;;;;;;;;;5009970;28;19967;-51
2022/03/07 00:44:05;;;;;;;;;;;;;;;;;;5012749;28;19968;-52
2022/03/07 00:46:30;;;;;;;;;;;;;;;;;;5011655;28;20812;-51
2022/03/07 00:48:55;;;;;;;;;;;;;;;;;;5007513;28;19932;-50
2022/03/07 00:51:20;;;;;;;;;;;;;;;;;;5011973;28;19921;-51
2022/03/07 00:53:47;;;;;;;;;;;;;;;;;;5012500;28;19956;-50
2022/03/07 00:56:12;;;;;;;;;;;;;;;;;;5014674;28;20395;-48
2022/03/07 00:58:38;;;;;;;;;;;;;;;;;;5013719;28;19921;-52
2022/03/07 01:01:03;;;;;;;;;;;;;;;;;;5013141;28;20007;-53
2022/03/07 01:03:28;;;;;;;;;;;;;;;;;;5013886;28;19928;-53
2022/03/07 01:05:53;;;;;;;;;;;;;;;;;;5019595;28;20526;-52
2022/03/07 01:08:18;;;;;;;;;;;;;;;;;;5016062;28;20079;-52
2022/03/07 01:10:43;;;;;;;;;;;;;;;;;;5013929;28;19922;-48
2022/03/07 01:13:09;;;;;;;;;;;;;;;;;;5014747;28;20015;-52
2022/03/07 01:15:34;;;;;;;;;;;;;;;;;;5013740;28;19948;-52
2022/03/07 01:17:59;;;;;;;;;;;;;;;;;;5015816;28;20447;-53
2022/03/07 01:20:24;;;;;;;;;;;;;;;;;;5011520;28;19945;-52
2022/03/07 01:22:50;;;;;;;;;;;;;;;;;;5011535;28;20035;-52
2022/03/07 01:25:15;;;;;;;;;;;;;;;;;;5012461;28;19961;-49
2022/03/07 01:27:40;;;;;;;;;;;;;;;;;;5013946;28;19928;-50
2022/03/07 01:30:05;;;;;;;;;;;;;;;;;;5013601;28;19925;-50
2022/03/07 01:32:30;;;;;;;;;;;;;;;;;;5010754;28;20514;-50
2022/03/07 01:34:55;;;;;;;;;;;;;;;;;;5013313;28;19968;-48
2022/03/07 01:37:21;;;;;;;;;;;;;;;;;;5012187;28;19917;-52
2022/03/07 01:39:46;;;;;;;;;;;;;;;;;;5018953;28;20364;-49
2022/03/07 01:42:11;;;;;;;;;;;;;;;;;;5021701;28;19928;-51
2022/03/07 01:44:36;;;;;;;;;;;;;;;;;;5021084;28;19917;-52
2022/03/07 01:47:01;;;;;;;;;;;;;;;;;;5018582;28;19921;-52
2022/03/07 01:49:26;;;;;;;;;;;;;;;;;;5017341;28;19921;-51
2022/03/07 01:51:52;;;;;;;;;;;;;;;;;;5019850;28;19936;-49
2022/03/07 01:54:17;;;;;;;;;;;;;;;;;;5015084;28;20023;-52
2022/03/07 01:56:42;;;;;;;;;;;;;;;;;;5020828;28;19983;-51
2022/03/07 01:59:07;;;;;;;;;;;;;;;;;;5020779;28;20451;-49
2022/03/07 02:01:32;;;;;;;;;;;;;;;;;;5019675;28;19920;-53
2022/03/07 02:03:58;;;;;;;;;;;;;;;;;;5015036;28;20413;-51
2022/03/07 02:06:23;;;;;;;;;;;;;;;;;;5016898;28;19917;-54
2022/03/07 02:08:48;;;;;;;;;;;;;;;;;;5013433;28;20373;-53
2022/03/07 02:11:13;;;;;;;;;;;;;;;;;;5017414;28;20047;-50
2022/03/07 02:13:38;;;;;;;;;;;;;;;;;;5012855;28;19922;-49
2022/03/07 02:16:04;;;;;;;;;;;;;;;;;;5011462;28;19929;-49
2022/03/07 02:18:30;;;;;;;;;;;;;;;;;;5014852;28;20770;-47
2022/03/07 02:20:55;;;;;;;;;;;;;;;;;;5019494;28;19972;-52
2022/03/07 02:23:20;;;;;;;;;;;;;;;;;;5019414;28;20369;-53
2022/03/07 02:25:47;;;;;;;;;;;;;;;;;;5015001;28;20404;-48
2022/03/07 02:28:12;;;;;;;;;;;;;;;;;;5017111;28;20478;-50
2022/03/07 02:30:38;;;;;;;;;;;;;;;;;;5015632;28;19917;-49
2022/03/07 02:33:03;;;;;;;;;;;;;;;;;;5017570;28;20562;-52
2022/03/07 02:35:34;;;;;;;;;;;;;;;;;;5016986;28;19917;-52
2022/03/07 02:37:59;;;;;;;;;;;;;;;;;;5014010;28;19917;-47
2022/03/07 02:40:24;;;;;;;;;;;;;;;;;;5015150;28;20404;-52
2022/03/07 02:42:49;;;;;;;;;;;;;;;;;;5015980;28;19921;-52
2022/03/07 02:45:14;;;;;;;;;;;;;;;;;;5019480;28;19921;-53
2022/03/07 02:47:40;;;;;;;;;;;;;;;;;;5015330;28;20041;-51
2022/03/07 02:50:11;;;;;;;;;;;;;;;;;;5016679;28;20546;-53
2022/03/07 02:52:36;;;;;;;;;;;;;;;;;;5010376;28;19922;-50
2022/03/07 02:55:01;;;;;;;;;;;;;;;;;;5018648;28;19928;-51
2022/03/07 02:57:26;;;;;;;;;;;;;;;;;;5020694;28;19941;-51
2022/03/07 02:59:51;;;;;;;;;;;;;;;;;;5018540;28;20408;-51
2022/03/07 03:02:17;;;;;;;;;;;;;;;;;;5016773;28;19924;-50
2022/03/07 03:04:42;;;;;;;;;;;;;;;;;;5022684;28;20357;-49
2022/03/07 03:07:07;;;;;;;;;;;;;;;;;;5021748;28;20441;-50
2022/03/07 03:09:32;;;;;;;;;;;;;;;;;;5013567;28;19928;-48
2022/03/07 03:11:58;;;;;;;;;;;;;;;;;;5016808;28;19917;-51
2022/03/07 03:14:23;;;;;;;;;;;;;;;;;;5014043;28;19918;-50
2022/03/07 03:16:48;;;;;;;;;;;;;;;;;;5020187;28;19921;-51
2022/03/07 03:19:14;;;;;;;;;;;;;;;;;;5017130;28;20524;-49
2022/03/07 03:21:39;;;;;;;;;;;;;;;;;;5022227;28;19927;-49
2022/03/07 03:24:04;;;;;;;;;;;;;;;;;;5020998;28;19917;-44
2022/03/07 03:26:29;;;;;;;;;;;;;;;;;;5021101;28;19960;-46
2022/03/07 03:28:55;;;;;;;;;;;;;;;;;;5019192;28;19969;-47
2022/03/07 03:31:20;;;;;;;;;;;;;;;;;;5017915;28;19921;-48
2022/03/07 03:33:45;;;;;;;;;;;;;;;;;;5015227;28;20309;-44
2022/03/07 03:36:10;;;;;;;;;;;;;;;;;;5013377;28;20253;-46
2022/03/07 03:38:35;;;;;;;;;;;;;;;;;;5014998;28;19925;-49
2022/03/07 03:41:00;;;;;;;;;;;;;;;;;;5015577;28;19917;-47
2022/03/07 03:43:25;;;;;;;;;;;;;;;;;;5018831;28;20560;-49
2022/03/07 03:45:51;;;;;;;;;;;;;;;;;;5017428;28;19925;-46
2022/03/07 03:48:16;;;;;;;;;;;;;;;;;;5016356;28;19921;-46
2022/03/07 03:50:41;;;;;;;;;;;;;;;;;;5013793;28;19925;-48
2022/03/07 03:53:06;;;;;;;;;;;;;;;;;;5029381;28;20462;-48
2022/03/07 03:55:31;;;;;;;;;;;;;;;;;;5013435;28;19918;-50
2022/03/07 03:57:56;;;;;;;;;;;;;;;;;;5011230;28;19924;-45
2022/03/07 04:00:23;;;;;;;;;;;;;;;;;;5010969;28;19925;-50
2022/03/07 04:02:49;;;;;;;;;;;;;;;;;;5017771;28;19917;-48
2022/03/07 04:05:14;;;;;;;;;;;;;;;;;;5015511;28;20522;-53
2022/03/07 04:07:39;;;;;;;;;;;;;;;;;;5012765;28;20016;-50
2022/03/07 04:10:04;;;;;;;;;;;;;;;;;;5016900;28;19956;-49
2022/03/07 04:12:29;;;;;;;;;;;;;;;;;;5030349;28;19929;-49
2022/03/07 04:14:55;;;;;;;;;;;;;;;;;;5013573;28;20466;-51
2022/03/07 04:17:20;;;;;;;;;;;;;;;;;;5012985;28;19941;-50
2022/03/07 04:19:45;;;;;;;;;;;;;;;;;;5011855;28;19917;-51
2022/03/07 04:22:10;;;;;;;;;;;;;;;;;;5018928;28;19922;-50
2022/03/07 04:24:36;;;;;;;;;;;;;;;;;;5019818;28;20377;-49
2022/03/07 04:27:01;;;;;;;;;;;;;;;;;;5012313;28;19918;-50
2022/03/07 04:29:26;;;;;;;;;;;;;;;;;;5014209;28;19929;-52
2022/03/07 04:31:51;;;;;;;;;;;;;;;;;;5011976;28;20432;-53
2022/03/07 04:34:16;;;;;;;;;;;;;;;;;;5015057;28;19921;-51
2022/03/07 04:36:41;;;;;;;;;;;;;;;;;;5014827;28;20004;-52
2022/03/07 04:39:06;;;;;;;;;;;;;;;;;;5028223;28;19925;-52
2022/03/07 04:41:32;;;;;;;;;;;;;;;;;;5017987;28;20053;-51
2022/03/07 04:43:57;;;;;;;;;;;;;;;;;;5016233;28;20032;-51
2022/03/07 04:46:22;;;;;;;;;;;;;;;;;;5014353;28;19921;-52
2022/03/07 04:48:47;;;;;;;;;;;;;;;;;;5012448;28;20312;-51
2022/03/07 04:51:12;;;;;;;;;;;;;;;;;;5014914;28;19925;-50
2022/03/07 04:53:37;;;;;;;;;;;;;;;;;;5016610;28;19923;-46
2022/03/07 04:56:02;;;;;;;;;;;;;;;;;;5014108;28;19979;-46
2022/03/07 04:58:28;;;;;;;;;;;;;;;;;;5013941;28;19921;-51
2022/03/07 05:00:54;;;;;;;;;;;;;;;;;;5016813;28;20026;-46
2022/03/07 05:03:19;;;;;;;;;;;;;;;;;;5015598;28;19917;-46
2022/03/07 05:05:44;;;;;;;;;;;;;;;;;;5017088;28;19972;-49
2022/03/07 05:08:09;;;;;;;;;;;;;;;;;;5028324;28;19921;-50
2022/03/07 05:10:34;;;;;;;;;;;;;;;;;;5015779;28;19999;-49
2022/03/07 05:12:59;;;;;;;;;;;;;;;;;;5014832;28;20409;-50
2022/03/07 05:15:25;;;;;;;;;;;;;;;;;;5014788;28;19976;-51
2022/03/07 05:17:56;;;;;;;;;;;;;;;;;;5014461;28;19921;-51
2022/03/07 05:20:21;;;;;;;;;;;;;;;;;;5015149;28;20476;-49
2022/03/07 05:22:46;;;;;;;;;;;;;;;;;;5014725;28;20020;-47
2022/03/07 05:25:11;;;;;;;;;;;;;;;;;;5016787;28;20179;-49
2022/03/07 05:27:37;;;;;;;;;;;;;;;;;;5016951;28;19924;-49
2022/03/07 05:30:02;;;;;;;;;;;;;;;;;;5017565;28;20024;-49
2022/03/07 05:32:27;;;;;;;;;;;;;;;;;;5014275;28;19921;-51
2022/03/07 05:34:52;;;;;;;;;;;;;;;;;;5008022;28;20373;-50
2022/03/07 05:37:17;;;;;;;;;;;;;;;;;;5010805;28;19921;-47
2022/03/07 05:39:42;;;;;;;;;;;;;;;;;;5014158;28;20336;-47
2022/03/07 05:42:08;;;;;;;;;;;;;;;;;;5013623;28;19927;-51
2022/03/07 05:44:33;;;;;;;;;;;;;;;;;;5015737;28;19921;-50
2022/03/07 05:46:58;;;;;;;;;;;;;;;;;;5013752;28;20376;-50
2022/03/07 05:49:23;;;;;;;;;;;;;;;;;;5016633;28;19956;-48
2022/03/07 05:51:48;;;;;;;;;;;;;;;;;;5017773;28;19935;-51
2022/03/07 05:54:13;;;;;;;;;;;;;;;;;;5016441;28;19924;-51
2022/03/07 05:56:39;;;;;;;;;;;;;;;;;;5014614;28;19921;-47
2022/03/07 05:59:04;;;;;;;;;;;;;;;;;;5011571;28;19917;-49
2022/03/07 06:01:29;;;;;;;;;;;;;;;;;;5013367;28;19952;-48
2022/03/07 06:03:56;;;;;;;;;;;;;;;;;;5011109;28;20202;-47
2022/03/07 06:06:21;;;;;;;;;;;;;;;;;;5014106;28;20316;-47
2022/03/07 06:08:46;;;;;;;;;;;;;;;;;;5012190;28;19925;-50
2022/03/07 06:11:12;;;;;;;;;;;;;;;;;;5016239;28;20024;-50
2022/03/07 06:13:37;;;;;;;;;;;;;;;;;;5013713;28;19913;-47
2022/03/07 06:16:02;;;;;;;;;;;;;;;;;;5012860;28;20340;-51
2022/03/07 06:18:27;;;;;;;;;;;;;;;;;;5013937;28;19930;-49
2022/03/07 06:20:52;;;;;;;;;;;;;;;;;;5016039;28;19921;-52
2022/03/07 06:23:17;;;;;;;;;;;;;;;;;;5017952;28;19928;-48
2022/03/07 06:25:42;;;;;;;;;;;;;;;;;;5020115;28;19925;-48
2022/03/07 06:28:09;;;;;;;;;;;;;;;;;;5018994;28;20363;-48
2022/03/07 06:30:34;;;;;;;;;;;;;;;;;;5019283;28;19929;-52
2022/03/07 06:32:59;;;;;;;;;;;;;;;;;;5018255;28;20272;-48
2022/03/07 06:35:24;;;;;;;;;;;;;;;;;;5014658;28;19929;-49
2022/03/07 06:37:49;;;;;;;;;;;;;;;;;;5016359;28;20391;-48
2022/03/07 06:40:14;;;;;;;;;;;;;;;;;;5012788;28;19929;-52
2022/03/07 06:42:40;;;;;;;;;;;;;;;;;;5015871;28;19924;-51
2022/03/07 06:45:05;;;;;;;;;;;;;;;;;;5019573;28;20569;-49
2022/03/07 06:47:30;;;;;;;;;;;;;;;;;;5013165;28;19918;-51
2022/03/07 06:49:57;;;;;;;;;;;;;;;;;;5016760;28;20012;-50
2022/03/07 06:52:22;;;;;;;;;;;;;;;;;;5014068;28;20004;-51
2022/03/07 06:54:47;;;;;;;;;;;;;;;;;;5016477;28;20367;-50
2022/03/07 06:57:12;;;;;;;;;;;;;;;;;;5010823;28;19980;-47
2022/03/07 06:59:38;;;;;;;;;;;;;;;;;;5020664;28;19964;-48
2022/03/07 07:02:03;;;;;;;;;;;;;;;;;;5015856;28;19921;-46
2022/03/07 07:04:28;;;;;;;;;;;;;;;;;;5017251;28;20380;-51
2022/03/07 07:06:53;;;;;;;;;;;;;;;;;;5015704;28;20017;-46
2022/03/07 07:09:18;;;;;;;;;;;;;;;;;;5012914;28;19977;-48
2022/03/07 07:11:43;;;;;;;;;;;;;;;;;;5011273;28;19975;-48
2022/03/07 07:14:08;;;;;;;;;;;;;;;;;;5014937;28;19928;-47
2022/03/07 07:16:34;;;;;;;;;;;;;;;;;;5014269;28;19922;-52
2022/03/07 07:18:59;;;;;;;;;;;;;;;;;;5011596;28;20543;-49
2022/03/07 07:21:24;;;;;;;;;;;;;;;;;;5012744;28;20369;-52
2022/03/07 07:23:49;;;;;;;;;;;;;;;;;;5018334;28;19928;-48
2022/03/07 07:26:14;;;;;;;;;;;;;;;;;;5013370;28;19948;-46
2022/03/07 07:28:40;;;;;;;;;;;;;;;;;;5011224;28;19925;-49
2022/03/07 07:31:05;;;;;;;;;;;;;;;;;;5021963;28;19924;-53
2022/03/07 07:33:30;;;;;;;;;;;;;;;;;;5014098;28;20408;-48
2022/03/07 07:35:55;;;;;;;;;;;;;;;;;;5017232;28;19918;-49
2022/03/07 07:38:21;;;;;;;;;;;;;;;;;;5015575;28;19914;-52
2022/03/07 07:40:46;;;;;;;;;;;;;;;;;;5015282;28;19960;-52
2022/03/07 07:43:12;;;;;;;;;;;;;;;;;;5012627;28;19956;-49
2022/03/07 07:45:37;;;;;;;;;;;;;;;;;;5015223;28;20369;-51
2022/03/07 07:48:02;;;;;;;;;;;;;;;;;;5016336;28;19921;-48
2022/03/07 07:50:27;;;;;;;;;;;;;;;;;;5014418;28;19979;-52
2022/03/07 07:52:52;;;;;;;;;;;;;;;;;;5014516;28;19925;-51
2022/03/07 07:55:17;;;;;;;;;;;;;;;;;;5013536;28;20435;-49
2022/03/07 07:57:43;;;;;;;;;;;;;;;;;;5014194;28;19917;-51
2022/03/07 08:00:08;;;;;;;;;;;;;;;;;;5013564;28;20011;-50
2022/03/07 08:02:33;;;;;;;;;;;;;;;;;;5015370;28;19985;-51
2022/03/07 08:04:58;;;;;;;;;;;;;;;;;;5012217;28;20348;-47
2022/03/07 08:07:23;;;;;;;;;;;;;;;;;;5011850;28;19922;-50
2022/03/07 08:09:48;;;;;;;;;;;;;;;;;;5011949;28;19932;-52
2022/03/07 08:12:17;;;;;;;;;;;;;;;;;;5016369;28;20293;-49
2022/03/07 08:14:42;;;;;;;;;;;;;;;;;;5012852;28;19959;-52
2022/03/07 08:17:08;;;;;;;;;;;;;;;;;;5014758;28;19984;-52
2022/03/07 08:19:33;;;;;;;;;;;;;;;;;;5013627;28;19929;-53
2022/03/07 08:21:58;;;;;;;;;;;;;;;;;;5016209;28;19924;-50
2022/03/07 08:24:23;;;;;;;;;;;;;;;;;;5017281;28;19932;-49
2022/03/07 08:26:48;;;;;;;;;;;;;;;;;;5019648;28;19978;-50
2022/03/07 08:29:14;;;;;;;;;;;;;;;;;;5012628;28;20887;-49
2022/03/07 08:31:39;;;;;;;;;;;;;;;;;;5013577;28;19928;-52
2022/03/07 08:34:04;;;;;;;;;;;;;;;;;;5016304;28;20024;-48
2022/03/07 08:36:29;;;;;;;;;;;;;;;;;;5012185;28;20937;-53
2022/03/07 08:38:54;;;;;;;;;;;;;;;;;;5015573;28;19921;-50
2022/03/07 08:41:20;;;;;;;;;;;;;;;;;;5016188;28;20446;-51
2022/03/07 08:43:45;;;;;;;;;;;;;;;;;;5010957;28;19921;-52
2022/03/07 08:46:10;;;;;;;;;;;;;;;;;;5013050;28;19924;-52
2022/03/07 08:48:35;;;;;;;;;;;;;;;;;;5012900;28;19917;-49
2022/03/07 08:51:02;;;;;;;;;;;;;;;;;;5020550;28;20545;-58
2022/03/07 08:53:27;;;;;;;;;;;;;;;;;;5012378;28;19917;-59
2022/03/07 08:55:52;;;;;;;;;;;;;;;;;;5017418;28;20052;-59
2022/03/07 08:58:17;;;;;;;;;;;;;;;;;;5011935;28;20450;-59
2022/03/07 09:00:42;;;;;;;;;;;;;;;;;;5014569;28;19929;-58
2022/03/07 09:03:07;;;;;;;;;;;;;;;;;;5017683;28;19921;-59
2022/03/07 09:05:33;;;;;;;;;;;;;;;;;;5014826;28;19925;-59
2022/03/07 09:07:58;;;;;;;;;;;;;;;;;;5013164;28;19985;-59
2022/03/07 09:10:23;;;;;;;;;;;;;;;;;;5016182;28;20385;-52
2022/03/07 09:12:49;;;;;;;;;;;;;;;;;;5015014;28;19960;-48
2022/03/07 09:15:14;;;;;;;;;;;;;;;;;;5011150;28;19921;-50
2022/03/07 09:17:39;;;;;;;;;;;;;;;;;;5005164;28;20155;-49
2022/03/07 09:20:05;;;;;;;;;;;;;;;;;;5006218;28;20371;-53
2022/03/07 09:22:30;;;;;;;;;;;;;;;;;;5010930;28;19929;-50
2022/03/07 09:24:55;;;;;;;;;;;;;;;;;;5014041;28;20409;-49
2022/03/07 09:27:20;;;;;;;;;;;;;;;;;;5014538;28;19930;-52
2022/03/07 09:29:45;;;;;;;;;;;;;;;;;;5013026;28;19925;-51
2022/03/07 09:32:11;;;;;;;;;;;;;;;;;;5012878;28;20415;-58
2022/03/07 09:34:36;;;;;;;;;;;;;;;;;;5013234;28;19933;-59
2022/03/07 09:37:02;;;;;;;;;;;;;;;;;;5011787;28;19928;-58
2022/03/07 09:39:27;;;;;;;;;;;;;;;;;;5013894;28;19924;-58
2022/03/07 09:41:52;;;;;;;;;;;;;;;;;;5011372;28;20344;-59
2022/03/07 09:44:17;;;;;;;;;;;;;;;;;;5028378;28;19928;-58
2022/03/07 09:46:43;;;;;;;;;;;;;;;;;;5012867;28;20314;-59
2022/03/07 09:49:08;;;;;;;;;;;;;;;;;;5014580;28;19924;-57
2022/03/07 09:51:33;;;;;;;;;;;;;;;;;;5013007;28;19988;-58
2022/03/07 09:53:58;;;;;;;;;;;;;;;;;;5017449;28;19932;-58
2022/03/07 09:56:23;;;;;;;;;;;;;;;;;;5020781;28;20307;-57
2022/03/07 09:58:48;;;;;;;;;;;;;;;;;;5017252;28;20011;-57
2022/03/07 10:01:14;;;;;;;;;;;;;;;;;;5016293;28;19913;-58
2022/03/07 10:03:39;;;;;;;;;;;;;;;;;;5020056;28;20309;-59
2022/03/07 10:06:04;;;;;;;;;;;;;;;;;;5017317;28;20396;-59
2022/03/07 10:08:29;;;;;;;;;;;;;;;;;;5013223;28;19982;-59
2022/03/07 10:10:54;;;;;;;;;;;;;;;;;;5015754;28;19921;-58
2022/03/07 10:13:19;;;;;;;;;;;;;;;;;;5014527;28;20024;-59
2022/03/07 10:15:44;;;;;;;;;;;;;;;;;;5013650;28;19925;-58
2022/03/07 10:18:10;;;;;;;;;;;;;;;;;;5016579;28;20533;-59
2022/03/07 10:20:35;;;;;;;;;;;;;;;;;;5016446;28;19917;-59
2022/03/07 10:23:00;;;;;;;;;;;;;;;;;;5014283;28;19972;-59
2022/03/07 10:25:25;;;;;;;;;;;;;;;;;;5014958;28;20376;-59
2022/03/07 10:27:50;;;;;;;;;;;;;;;;;;5016300;28;19917;-59
2022/03/07 10:30:15;;;;;;;;;;;;;;;;;;5017480;28;20382;-59
2022/03/07 10:32:41;;;;;;;;;;;;;;;;;;5013467;28;20367;-59
2022/03/07 10:35:06;;;;;;;;;;;;;;;;;;5014506;28;19924;-59
2022/03/07 10:37:31;;;;;;;;;;;;;;;;;;5019301;28;20391;-59
2022/03/07 10:39:56;;;;;;;;;;;;;;;;;;5017109;28;19936;-60
2022/03/07 10:42:21;;;;;;;;;;;;;;;;;;5018074;28;19922;-36
2022/03/07 10:44:46;;;;;;;;;;;;;;;;;;5018896;28;20489;-36
2022/03/07 10:47:12;;;;;;;;;;;;;;;;;;5014338;28;19938;-37
2022/03/07 10:49:37;;;;;;;;;;;;;;;;;;5012643;28;19925;-38
2022/03/07 10:52:02;;;;;;;;;;;;;;;;;;5015605;28;19921;-37
2022/03/07 10:54:27;;;;;;;;;;;;;;;;;;5018348;28;20460;-37
2022/03/07 10:56:52;;;;;;;;;;;;;;;;;;5009588;28;19987;-37
2022/03/07 10:59:17;;;;;;;;;;;;;;;;;;5016693;28;19920;-37
2022/03/07 11:01:43;;;;;;;;;;;;;;;;;;5014775;28;20012;-38
2022/03/07 11:04:08;;;;;;;;;;;;;;;;;;5014279;28;20459;-36
2022/03/07 11:06:33;;;;;;;;;;;;;;;;;;5014720;28;20459;-37
2022/03/07 11:08:59;;;;;;;;;;;;;;;;;;5017025;28;19979;-43
2022/03/07 11:11:24;;;;;;;;;;;;;;;;;;5017446;28;19917;-37
2022/03/07 11:13:49;;;;;;;;;;;;;;;;;;5013833;28;20550;-36
2022/03/07 11:16:14;;;;;;;;;;;;;;;;;;5018261;28;19956;-37
2022/03/07 11:18:39;;;;;;;;;;;;;;;;;;5012501;28;19918;-37
2022/03/07 11:21:05;;;;;;;;;;;;;;;;;;5011419;28;19971;-37
2022/03/07 11:23:30;;;;;;;;;;;;;;;;;;5013779;28;19925;-36
2022/03/07 11:25:55;;;;;;;;;;;;;;;;;;5013953;28;19921;-37
2022/03/07 11:28:20;;;;;;;;;;;;;;;;;;5016611;28;19921;-39
2022/03/07 11:30:46;;;;;;;;;;;;;;;;;;5018079;28;20288;-37
2022/03/07 11:33:11;;;;;;;;;;;;;;;;;;5015917;28;19937;-37
2022/03/07 11:35:36;;;;;;;;;;;;;;;;;;5014363;28;19917;-37
2022/03/07 11:38:01;;;;;;;;;;;;;;;;;;5015312;28;19924;-37
2022/03/07 11:40:26;;;;;;;;;;;;;;;;;;5014260;28;19932;-38
2022/03/07 11:42:51;;;;;;;;;;;;;;;;;;5015634;28;19921;-37
2022/03/07 11:45:18;;;;;;;;;;;;;;;;;;5013764;28;20408;-39
2022/03/07 11:47:43;;;;;;;;;;;;;;;;;;5014783;28;20009;-39
2022/03/07 11:50:09;;;;;;;;;;;;;;;;;;5009636;28;19977;-40
2022/03/07 11:52:34;;;;;;;;;;;;;;;;;;5018475;28;19918;-40
2022/03/07 11:54:59;;;;;;;;;;;;;;;;;;5012617;28;19914;-43
2022/03/07 11:57:24;;;;;;;;;;;;;;;;;;5013901;28;19917;-41
2022/03/07 11:59:49;;;;;;;;;;;;;;;;;;5016153;28;20397;-40
2022/03/07 12:02:14;;;;;;;;;;;;;;;;;;5016241;28;20009;-41
2022/03/07 12:04:40;;;;;;;;;;;;;;;;;;5013403;28;19975;-45
2022/03/07 12:07:05;;;;;;;;;;;;;;;;;;5016241;28;20296;-40
2022/03/07 12:09:32;;;;;;;;;;;;;;;;;;5015012;28;19929;-42
2022/03/07 12:11:58;;;;;;;;;;;;;;;;;;5007227;28;19991;-39
2022/03/07 12:14:23;;;;;;;;;;;;;;;;;;5014789;28;19927;-42
2022/03/07 12:16:49;;;;;;;;;;;;;;;;;;5007984;28;19921;-44
2022/03/07 12:19:14;;;;;;;;;;;;;;;;;;5010513;28;19964;-42
2022/03/07 12:21:41;;;;;;;;;;;;;;;;;;5013455;28;19924;-42
2022/03/07 12:24:06;;;;;;;;;;;;;;;;;;5009829;28;19981;-47
2022/03/07 12:26:31;;;;;;;;;;;;;;;;;;5006796;28;20445;-49
2022/03/07 12:28:56;;;;;;;;;;;;;;;;;;5015505;28;19920;-46
2022/03/07 12:31:21;;;;;;;;;;;;;;;;;;5012330;28;19921;-44
2022/03/07 12:33:46;;;;;;;;;;;;;;;;;;5015208;28;19925;-42
2022/03/07 12:36:13;;;;;;;;;;;;;;;;;;5016230;28;20413;-43
2022/03/07 12:38:38;;;;;;;;;;;;;;;;;;5008793;28;20381;-45
2022/03/07 12:41:04;;;;;;;;;;;;;;;;;;5015564;28;19968;-43
2022/03/07 12:43:29;;;;;;;;;;;;;;;;;;5012406;28;20458;-45
2022/03/07 12:45:57;;;;;;;;;;;;;;;;;;5011149;28;19929;-46
2022/03/07 12:48:22;;;;;;;;;;;;;;;;;;5015429;28;20019;-43
2022/03/07 12:50:47;;;;;;;;;;;;;;;;;;5015616;28;20020;-43
2022/03/07 12:53:12;;;;;;;;;;;;;;;;;;5015830;28;20313;-42
2022/03/07 12:55:37;;;;;;;;;;;;;;;;;;5015690;28;19917;-41
2022/03/07 12:58:03;;;;;;;;;;;;;;;;;;5015848;28;20573;-40
2022/03/07 13:00:28;;;;;;;;;;;;;;;;;;5015431;28;19928;-41
2022/03/07 13:02:55;;;;;;;;;;;;;;;;;;5012722;28;19953;-41
2022/03/07 13:05:21;;;;;;;;;;;;;;;;;;5012461;28;19932;-42
2022/03/07 13:07:47;;;;;;;;;;;;;;;;;;5014875;28;19925;-41
2022/03/07 13:10:12;;;;;;;;;;;;;;;;;;5016286;28;19983;-42
2022/03/07 13:12:37;;;;;;;;;;;;;;;;;;5014417;28;20000;-42
2022/03/07 13:15:02;;;;;;;;;;;;;;;;;;5011916;28;20404;-43
2022/03/07 13:17:27;;;;;;;;;;;;;;;;;;5006829;28;19945;-46
2022/03/07 13:19:54;;;;;;;;;;;;;;;;;;5013257;28;19988;-43
2022/03/07 13:22:19;;;;;;;;;;;;;;;;;;5015464;28;20561;-42
2022/03/07 13:24:44;;;;;;;;;;;;;;;;;;5012209;28;19920;-48
2022/03/07 13:27:09;;;;;;;;;;;;;;;;;;5011156;28;19964;-43
2022/03/07 13:29:34;;;;;;;;;;;;;;;;;;5014024;28;20428;-44
2022/03/07 13:32:01;;;;;;;;;;;;;;;;;;5013287;28;19922;-40
2022/03/07 13:34:26;;;;;;;;;;;;;;;;;;5014197;28;19917;-40
2022/03/07 13:36:52;;;;;;;;;;;;;;;;;;5013701;28;19963;-41
2022/03/07 13:39:17;;;;;;;;;;;;;;;;;;5014717;28;19913;-40
2022/03/07 13:41:42;;;;;;;;;;;;;;;;;;5010191;28;19921;-41
2022/03/07 13:44:07;;;;;;;;;;;;;;;;;;5011683;28;19944;-42
2022/03/07 13:46:32;;;;;;;;;;;;;;;;;;5012585;28;19922;-43
2022/03/07 13:48:57;;;;;;;;;;;;;;;;;;5009171;28;20447;-42
2022/03/07 13:51:22;;;;;;;;;;;;;;;;;;5012430;28;19973;-44
2022/03/07 13:53:48;;;;;;;;;;;;;;;;;;5016251;28;19929;-43
2022/03/07 13:56:13;;;;;;;;;;;;;;;;;;5012589;28;20245;-46
2022/03/07 13:58:38;;;;;;;;;;;;;;;;;;5011772;28;19921;-46
2022/03/07 14:01:03;;;;;;;;;;;;;;;;;;5012212;28;19913;-42
2022/03/07 14:03:28;;;;;;;;;;;;;;;;;;5012696;28;20038;-45
2022/03/07 14:05:54;;;;;;;;;;;;;;;;;;5014984;28;19943;-41
2022/03/07 14:08:19;;;;;;;;;;;;;;;;;;5013088;28;20300;-41
2022/03/07 14:10:44;;;;;;;;;;;;;;;;;;5014428;28;20000;-43
2022/03/07 14:13:09;;;;;;;;;;;;;;;;;;5011141;28;20459;-41
2022/03/07 14:15:35;;;;;;;;;;;;;;;;;;5009426;28;19928;-40
2022/03/07 14:18:00;;;;;;;;;;;;;;;;;;5011483;28;20459;-39
2022/03/07 14:20:25;;;;;;;;;;;;;;;;;;5012291;28;19928;-43
2022/03/07 14:22:50;;;;;;;;;;;;;;;;;;5014356;28;19983;-40
2022/03/07 14:25:15;;;;;;;;;;;;;;;;;;5012091;28;19925;-43
2022/03/07 14:27:40;;;;;;;;;;;;;;;;;;5013579;28;20475;-42
2022/03/07 14:30:06;;;;;;;;;;;;;;;;;;5013566;28;19929;-43
2022/03/07 14:32:31;;;;;;;;;;;;;;;;;;5016468;28;19927;-41
2022/03/07 14:34:56;;;;;;;;;;;;;;;;;;5009429;28;20385;-42
2022/03/07 14:37:22;;;;;;;;;;;;;;;;;;5018061;28;19924;-40
2022/03/07 14:39:47;;;;;;;;;;;;;;;;;;5016692;28;19921;-41
2022/03/07 14:42:12;;;;;;;;;;;;;;;;;;5017679;28;19922;-42
2022/03/07 14:44:37;;;;;;;;;;;;;;;;;;5017120;28;19920;-42
2022/03/07 14:47:02;;;;;;;;;;;;;;;;;;5015113;28;20101;-41
2022/03/07 14:49:27;;;;;;;;;;;;;;;;;;5016756;28;19937;-42
2022/03/07 14:51:52;;;;;;;;;;;;;;;;;;5018387;28;20281;-45
2022/03/07 14:54:18;;;;;;;;;;;;;;;;;;5016113;28;19922;-43
2022/03/07 14:56:43;;;;;;;;;;;;;;;;;;5014818;28;19917;-46
2022/03/07 14:59:08;;;;;;;;;;;;;;;;;;5019464;28;19971;-47
2022/03/07 15:01:33;;;;;;;;;;;;;;;;;;5017649;28;19924;-45
2022/03/07 15:03:58;;;;;;;;;;;;;;;;;;5011723;28;20317;-46
2022/03/07 15:06:25;;;;;;;;;;;;;;;;;;5014687;28;19960;-46
2022/03/07 15:08:50;;;;;;;;;;;;;;;;;;5011362;28;19917;-46
2022/03/07 15:11:15;;;;;;;;;;;;;;;;;;5020173;28;19921;-45
2022/03/07 15:13:41;;;;;;;;;;;;;;;;;;5021375;28;19920;-47
2022/03/07 15:16:06;;;;;;;;;;;;;;;;;;5018348;28;19917;-42
2022/03/07 15:18:31;;;;;;;;;;;;;;;;;;5015471;28;20586;-43
2022/03/07 15:20:56;;;;;;;;;;;;;;;;;;5012477;28;19948;-43
2022/03/07 15:23:22;;;;;;;;;;;;;;;;;;5010059;28;19923;-45
2022/03/07 15:25:47;;;;;;;;;;;;;;;;;;5015433;28;20482;-40
2022/03/07 15:28:12;;;;;;;;;;;;;;;;;;5013930;28;19917;-45
2022/03/07 15:30:37;;;;;;;;;;;;;;;;;;5015078;28;20582;-41
2022/03/07 15:33:03;;;;;;;;;;;;;;;;;;5019032;28;19933;-41
2022/03/07 15:35:28;;;;;;;;;;;;;;;;;;5022828;28;19925;-45
2022/03/07 15:37:53;;;;;;;;;;;;;;;;;;5016399;28;20093;-44
2022/03/07 15:40:21;;;;;;;;;;;;;;;;;;5013561;28;20008;-44
2022/03/07 15:42:46;;;;;;;;;;;;;;;;;;5010762;28;19924;-44
2022/03/07 15:45:11;;;;;;;;;;;;;;;;;;5018506;28;19921;-41
2022/03/07 15:47:36;;;;;;;;;;;;;;;;;;5015855;28;20372;-41
2022/03/07 15:50:02;;;;;;;;;;;;;;;;;;5013829;28;19988;-40
2022/03/07 15:52:30;;;;;;;;;;;;;;;;;;5017531;28;19932;-43
2022/03/07 15:54:56;;;;;;;;;;;;;;;;;;5012296;28;19924;-42
2022/03/07 15:57:22;;;;;;;;;;;;;;;;;;5013431;28;20344;-48
2022/03/07 15:59:47;;;;;;;;;;;;;;;;;;5011599;28;19917;-43
2022/03/07 16:02:12;;;;;;;;;;;;;;;;;;5017664;28;19945;-42
2022/03/07 16:04:37;;;;;;;;;;;;;;;;;;5011028;28;19992;-41
2022/03/07 16:07:02;;;;;;;;;;;;;;;;;;5018400;28;19987;-47
2022/03/07 16:09:28;;;;;;;;;;;;;;;;;;5014752;28;20071;-40
2022/03/07 16:11:53;;;;;;;;;;;;;;;;;;5010056;28;19921;-46
2022/03/07 16:14:18;;;;;;;;;;;;;;;;;;5013873;28;19917;-40
2022/03/07 16:16:44;;;;;;;;;;;;;;;;;;5014618;28;20677;-41
2022/03/07 16:19:09;;;;;;;;;;;;;;;;;;5017609;28;20099;-40
2022/03/07 16:21:35;;;;;;;;;;;;;;;;;;5013123;28;20455;-40
2022/03/07 16:24:02;;;;;;;;;;;;;;;;;;5014049;28;19922;-42
2022/03/07 16:26:29;;;;;;;;;;;;;;;;;;5010770;28;19920;-43
2022/03/07 16:28:54;;;;;;;;;;;;;;;;;;5013212;28;19929;-41
2022/03/07 16:31:19;;;;;;;;;;;;;;;;;;5016670;28;19932;-40